sensor_id;sensor_type;location;lat;lon;timestamp;pressure;altitude;pressure_sealevel;temperature;humidity
61870;BME280;47810;42.264;23.826;2023-03-13T00:00:10;94014.81;;;1.24;61.21
61870;BME280;47810;42.264;23.826;2023-03-13T00:02:36;94015.31;;;1.05;60.64
61870;BME280;47810;42.264;23.826;2023-03-13T00:05:02;94011.56;;;1.15;61.34
61870;BME280;47810;42.264;23.826;2023-03-13T00:07:28;94005.66;;;1.10;61.27
61870;BME280;47810;42.264;23.826;2023-03-13T00:09:53;94014.53;;;1.02;60.89
61870;BME280;47810;42.264;23.826;2023-03-13T00:12:19;94005.06;;;0.99;61.55
61870;BME280;47810;42.264;23.826;2023-03-13T00:14:44;94012.72;;;1.05;62.03
61870;BME280;47810;42.264;23.826;2023-03-13T00:17:10;94019.03;;;0.95;62.29
61870;BME280;47810;42.264;23.826;2023-03-13T00:19:35;94016.28;;;1.01;62.31
61870;BME280;47810;42.264;23.826;2023-03-13T00:22:01;94022.31;;;1.03;62.02
61870;BME280;47810;42.264;23.826;2023-03-13T00:24:26;94026.91;;;0.93;62.28
61870;BME280;47810;42.264;23.826;2023-03-13T00:26:52;94024.78;;;1.08;61.18
61870;BME280;47810;42.264;23.826;2023-03-13T00:29:19;94027.47;;;1.05;61.79
61870;BME280;47810;42.264;23.826;2023-03-13T00:31:44;94029.13;;;1.07;62.46
61870;BME280;47810;42.264;23.826;2023-03-13T00:34:10;94027.44;;;1.06;62.24
61870;BME280;47810;42.264;23.826;2023-03-13T00:36:36;94018.72;;;1.07;63.06
61870;BME280;47810;42.264;23.826;2023-03-13T00:39:02;94024.69;;;1.11;61.74
61870;BME280;47810;42.264;23.826;2023-03-13T00:41:29;94027.66;;;0.97;62.08
61870;BME280;47810;42.264;23.826;2023-03-13T00:43:55;94029.28;;;1.01;62.36
61870;BME280;47810;42.264;23.826;2023-03-13T00:46:22;94025.63;;;1.08;62.73
61870;BME280;47810;42.264;23.826;2023-03-13T00:48:49;94019.38;;;1.15;61.09
61870;BME280;47810;42.264;23.826;2023-03-13T00:51:15;94026.63;;;1.04;61.72
61870;BME280;47810;42.264;23.826;2023-03-13T00:53:41;94029.97;;;1.08;61.32
61870;BME280;47810;42.264;23.826;2023-03-13T00:56:07;94022.22;;;1.06;61.59
61870;BME280;47810;42.264;23.826;2023-03-13T00:58:34;94027.66;;;0.97;62.28
61870;BME280;47810;42.264;23.826;2023-03-13T01:01:12;94025.72;;;1.05;61.88
61870;BME280;47810;42.264;23.826;2023-03-13T01:03:39;94030.81;;;1.10;61.38
61870;BME280;47810;42.264;23.826;2023-03-13T01:06:06;94030.03;;;1.06;60.70
61870;BME280;47810;42.264;23.826;2023-03-13T01:08:32;94034.50;;;1.01;62.03
61870;BME280;47810;42.264;23.826;2023-03-13T01:11:02;94029.13;;;1.07;61.29
61870;BME280;47810;42.264;23.826;2023-03-13T01:13:28;94021.88;;;1.19;60.19
61870;BME280;47810;42.264;23.826;2023-03-13T01:15:54;94029.97;;;1.09;60.41
61870;BME280;47810;42.264;23.826;2023-03-13T01:18:20;94034.72;;;0.92;60.66
61870;BME280;47810;42.264;23.826;2023-03-13T01:20:46;94037.13;;;0.65;61.83
61870;BME280;47810;42.264;23.826;2023-03-13T01:23:11;94037.13;;;0.65;62.33
61870;BME280;47810;42.264;23.826;2023-03-13T01:25:37;94036.69;;;0.82;62.88
61870;BME280;47810;42.264;23.826;2023-03-13T01:28:04;94035.09;;;0.77;61.41
61870;BME280;47810;42.264;23.826;2023-03-13T01:30:29;94028.66;;;0.91;60.78
61870;BME280;47810;42.264;23.826;2023-03-13T01:32:55;94033.47;;;0.73;61.37
61870;BME280;47810;42.264;23.826;2023-03-13T01:35:20;94033.91;;;0.54;61.82
61870;BME280;47810;42.264;23.826;2023-03-13T01:37:46;94032.38;;;0.47;62.01
61870;BME280;47810;42.264;23.826;2023-03-13T01:40:11;94044.13;;;0.26;63.33
61870;BME280;47810;42.264;23.826;2023-03-13T01:47:59;94052.63;;;-0.06;65.05
61870;BME280;47810;42.264;23.826;2023-03-13T01:50:25;94062.88;;;0.00;64.92
61870;BME280;47810;42.264;23.826;2023-03-13T01:52:50;94056.72;;;0.04;64.46
61870;BME280;47810;42.264;23.826;2023-03-13T01:55:16;94057.75;;;-0.03;64.53
61870;BME280;47810;42.264;23.826;2023-03-13T01:57:43;94066.28;;;0.02;64.27
61870;BME280;47810;42.264;23.826;2023-03-13T02:00:24;94069.25;;;-0.16;65.66
61870;BME280;47810;42.264;23.826;2023-03-13T02:02:52;94068.06;;;-0.42;65.97
61870;BME280;47810;42.264;23.826;2023-03-13T02:05:19;94062.19;;;-0.50;66.29
61870;BME280;47810;42.264;23.826;2023-03-13T02:07:52;94075.22;;;-0.53;66.65
61870;BME280;47810;42.264;23.826;2023-03-13T02:10:19;94076.44;;;-0.73;67.00
61870;BME280;47810;42.264;23.826;2023-03-13T02:12:46;94080.66;;;-0.67;67.21
61870;BME280;47810;42.264;23.826;2023-03-13T02:15:14;94081.69;;;-0.76;67.57
61870;BME280;47810;42.264;23.826;2023-03-13T02:17:41;94081.84;;;-0.40;66.47
61870;BME280;47810;42.264;23.826;2023-03-13T02:20:07;94082.50;;;-0.29;66.62
61870;BME280;47810;42.264;23.826;2023-03-13T02:27:33;94087.94;;;-0.87;67.61
61870;BME280;47810;42.264;23.826;2023-03-13T02:29:59;94086.53;;;-1.05;68.22
61870;BME280;47810;42.264;23.826;2023-03-13T02:32:25;94088.16;;;-1.00;67.82
61870;BME280;47810;42.264;23.826;2023-03-13T02:34:51;94090.94;;;-1.10;68.09
61870;BME280;47810;42.264;23.826;2023-03-13T02:37:20;94092.31;;;-0.91;67.69
61870;BME280;47810;42.264;23.826;2023-03-13T02:39:47;94094.47;;;-1.14;68.88
61870;BME280;47810;42.264;23.826;2023-03-13T02:42:14;94104.34;;;-0.87;68.15
61870;BME280;47810;42.264;23.826;2023-03-13T02:44:42;94100.00;;;-0.85;67.72
61870;BME280;47810;42.264;23.826;2023-03-13T02:47:08;94108.66;;;-0.87;67.51
61870;BME280;47810;42.264;23.826;2023-03-13T02:49:34;94110.91;;;-1.17;68.43
61870;BME280;47810;42.264;23.826;2023-03-13T02:52:03;94119.94;;;-0.90;68.01
61870;BME280;47810;42.264;23.826;2023-03-13T02:54:33;94113.06;;;-0.91;67.85
61870;BME280;47810;42.264;23.826;2023-03-13T02:57:01;94108.16;;;-1.08;67.97
61870;BME280;47810;42.264;23.826;2023-03-13T02:59:27;94113.16;;;-0.97;68.11
61870;BME280;47810;42.264;23.826;2023-03-13T03:01:53;94113.00;;;-0.88;67.57
61870;BME280;47810;42.264;23.826;2023-03-13T03:04:19;94110.66;;;-1.03;67.72
61870;BME280;47810;42.264;23.826;2023-03-13T03:06:45;94121.97;;;-1.07;68.07
61870;BME280;47810;42.264;23.826;2023-03-13T03:09:11;94120.97;;;-0.99;67.80
61870;BME280;47810;42.264;23.826;2023-03-13T03:11:36;94131.06;;;-1.36;68.59
61870;BME280;47810;42.264;23.826;2023-03-13T03:14:03;94121.56;;;-1.34;69.22
61870;BME280;47810;42.264;23.826;2023-03-13T03:16:28;94120.31;;;-1.11;69.52
61870;BME280;47810;42.264;23.826;2023-03-13T03:18:54;94130.50;;;-0.99;69.12
61870;BME280;47810;42.264;23.826;2023-03-13T03:21:19;94131.09;;;-0.85;69.16
61870;BME280;47810;42.264;23.826;2023-03-13T03:23:45;94130.00;;;-0.72;68.44
61870;BME280;47810;42.264;23.826;2023-03-13T03:26:11;94129.88;;;-0.65;67.87
61870;BME280;47810;42.264;23.826;2023-03-13T03:28:36;94144.38;;;-0.55;67.87
61870;BME280;47810;42.264;23.826;2023-03-13T03:31:05;94142.69;;;-0.56;67.45
61870;BME280;47810;42.264;23.826;2023-03-13T03:33:31;94144.38;;;-0.55;67.60
61870;BME280;47810;42.264;23.826;2023-03-13T03:36:01;94159.09;;;-0.54;67.81
61870;BME280;47810;42.264;23.826;2023-03-13T03:38:26;94162.47;;;-0.52;67.77
61870;BME280;47810;42.264;23.826;2023-03-13T03:40:52;94169.22;;;-0.42;66.83
61870;BME280;47810;42.264;23.826;2023-03-13T03:43:18;94170.03;;;-0.38;67.28
61870;BME280;47810;42.264;23.826;2023-03-13T03:45:43;94172.53;;;-0.34;66.92
61870;BME280;47810;42.264;23.826;2023-03-13T03:48:09;94169.84;;;-0.29;66.68
61870;BME280;47810;42.264;23.826;2023-03-13T03:50:34;94168.88;;;-0.24;66.72
61870;BME280;47810;42.264;23.826;2023-03-13T03:53:00;94162.66;;;-0.16;66.17
61870;BME280;47810;42.264;23.826;2023-03-13T03:55:26;94174.00;;;-0.20;66.48
61870;BME280;47810;42.264;23.826;2023-03-13T03:57:51;94168.81;;;-0.20;66.74
61870;BME280;47810;42.264;23.826;2023-03-13T04:00:17;94174.19;;;-0.30;67.32
61870;BME280;47810;42.264;23.826;2023-03-13T04:02:43;94172.69;;;-0.43;66.41
61870;BME280;47810;42.264;23.826;2023-03-13T04:05:09;94191.69;;;-0.41;65.95
61870;BME280;47810;42.264;23.826;2023-03-13T04:07:35;94189.97;;;-0.42;66.20
61870;BME280;47810;42.264;23.826;2023-03-13T04:10:00;94193.44;;;-0.43;66.63
61870;BME280;47810;42.264;23.826;2023-03-13T04:12:26;94188.09;;;-0.34;66.06
61870;BME280;47810;42.264;23.826;2023-03-13T04:14:52;94186.34;;;-0.32;65.99
61870;BME280;47810;42.264;23.826;2023-03-13T04:17:17;94191.53;;;-0.32;65.78
61870;BME280;47810;42.264;23.826;2023-03-13T04:19:43;94199.44;;;-0.39;65.46
61870;BME280;47810;42.264;23.826;2023-03-13T04:22:08;94198.25;;;-0.21;64.58
61870;BME280;47810;42.264;23.826;2023-03-13T04:24:34;94200.38;;;-0.45;64.52
61870;BME280;47810;42.264;23.826;2023-03-13T04:26:59;94207.41;;;-0.50;65.30
61870;BME280;47810;42.264;23.826;2023-03-13T04:29:26;94213.25;;;-0.39;66.00
61870;BME280;47810;42.264;23.826;2023-03-13T04:31:52;94222.75;;;-0.38;66.27
61870;BME280;47810;42.264;23.826;2023-03-13T04:34:17;94228.00;;;-0.42;66.64
61870;BME280;47810;42.264;23.826;2023-03-13T04:36:44;94229.66;;;-0.37;66.15
61870;BME280;47810;42.264;23.826;2023-03-13T04:39:09;94223.56;;;-0.34;65.34
61870;BME280;47810;42.264;23.826;2023-03-13T04:41:35;94234.84;;;-0.37;65.19
61870;BME280;47810;42.264;23.826;2023-03-13T04:44:00;94237.03;;;-0.63;66.02
61870;BME280;47810;42.264;23.826;2023-03-13T04:46:26;94239.59;;;-0.62;66.22
61870;BME280;47810;42.264;23.826;2023-03-13T04:48:52;94242.13;;;-0.59;66.24
61870;BME280;47810;42.264;23.826;2023-03-13T04:51:17;94248.09;;;-0.54;65.70
61870;BME280;47810;42.264;23.826;2023-03-13T04:53:43;94250.56;;;-0.46;65.17
61870;BME280;47810;42.264;23.826;2023-03-13T04:56:09;94243.13;;;-0.67;65.76
61870;BME280;47810;42.264;23.826;2023-03-13T04:58:35;94247.50;;;-0.69;66.33
61870;BME280;47810;42.264;23.826;2023-03-13T05:01:01;94255.94;;;-1.14;67.15
61870;BME280;47810;42.264;23.826;2023-03-13T05:03:26;94255.00;;;-1.08;67.85
61870;BME280;47810;42.264;23.826;2023-03-13T05:05:52;94259.28;;;-1.07;67.84
61870;BME280;47810;42.264;23.826;2023-03-13T05:08:17;94259.47;;;-1.18;68.94
61870;BME280;47810;42.264;23.826;2023-03-13T05:10:43;94264.34;;;-1.00;68.41
61870;BME280;47810;42.264;23.826;2023-03-13T05:13:09;94264.63;;;-1.18;69.55
61870;BME280;47810;42.264;23.826;2023-03-13T05:15:34;94270.72;;;-1.21;69.99
61870;BME280;47810;42.264;23.826;2023-03-13T05:18:00;94272.13;;;-0.98;69.31
61870;BME280;47810;42.264;23.826;2023-03-13T05:20:25;94276.81;;;-0.67;68.29
61870;BME280;47810;42.264;23.826;2023-03-13T05:22:51;94276.69;;;-0.58;67.10
61870;BME280;47810;42.264;23.826;2023-03-13T05:25:16;94274.13;;;-0.60;66.36
61870;BME280;47810;42.264;23.826;2023-03-13T05:27:42;94276.69;;;-0.58;67.18
61870;BME280;47810;42.264;23.826;2023-03-13T05:30:07;94275.03;;;-0.62;68.48
61870;BME280;47810;42.264;23.826;2023-03-13T05:32:33;94282.75;;;-0.59;67.72
61870;BME280;47810;42.264;23.826;2023-03-13T05:34:58;94286.97;;;-0.52;67.00
61870;BME280;47810;42.264;23.826;2023-03-13T05:37:24;94285.16;;;-0.47;67.12
61870;BME280;47810;42.264;23.826;2023-03-13T05:39:50;94277.34;;;-0.44;66.67
61870;BME280;47810;42.264;23.826;2023-03-13T05:42:15;94280.56;;;-0.31;66.29
61870;BME280;47810;42.264;23.826;2023-03-13T05:44:41;94291.06;;;-0.37;64.98
61870;BME280;47810;42.264;23.826;2023-03-13T05:47:06;94297.13;;;-0.40;66.46
61870;BME280;47810;42.264;23.826;2023-03-13T05:49:32;94301.53;;;-0.43;67.65
61870;BME280;47810;42.264;23.826;2023-03-13T05:51:57;94310.94;;;-0.38;66.29
61870;BME280;47810;42.264;23.826;2023-03-13T05:54:23;94309.13;;;-0.33;66.28
61870;BME280;47810;42.264;23.826;2023-03-13T05:56:57;94304.78;;;-0.31;66.03
61870;BME280;47810;42.264;23.826;2023-03-13T05:59:22;94309.16;;;-0.36;67.11
61870;BME280;47810;42.264;23.826;2023-03-13T06:01:48;94301.38;;;-0.36;68.07
61870;BME280;47810;42.264;23.826;2023-03-13T06:04:14;94302.09;;;-0.25;67.30
61870;BME280;47810;42.264;23.826;2023-03-13T06:06:39;94307.09;;;-0.14;66.04
61870;BME280;47810;42.264;23.826;2023-03-13T06:09:05;94315.66;;;-0.10;65.36
61870;BME280;47810;42.264;23.826;2023-03-13T06:11:30;94312.91;;;-0.01;65.82
61870;BME280;47810;42.264;23.826;2023-03-13T06:13:56;94310.16;;;0.08;65.76
61870;BME280;47810;42.264;23.826;2023-03-13T06:16:22;94310.09;;;0.11;65.71
61870;BME280;47810;42.264;23.826;2023-03-13T06:18:48;94312.78;;;0.07;66.01
61870;BME280;47810;42.264;23.826;2023-03-13T06:21:13;94316.19;;;0.09;65.59
61870;BME280;47810;42.264;23.826;2023-03-13T06:23:39;94324.13;;;0.01;65.16
61870;BME280;47810;42.264;23.826;2023-03-13T06:26:06;94331.22;;;-0.10;65.43
61870;BME280;47810;42.264;23.826;2023-03-13T06:28:32;94314.81;;;-0.11;66.29
61870;BME280;47810;42.264;23.826;2023-03-13T06:31:01;94313.44;;;0.19;64.86
61870;BME280;47810;42.264;23.826;2023-03-13T06:33:27;94320.53;;;0.08;65.41
61870;BME280;47810;42.264;23.826;2023-03-13T06:35:52;94318.63;;;0.19;66.39
61870;BME280;47810;42.264;23.826;2023-03-13T06:38:18;94314.28;;;0.18;65.00
61870;BME280;47810;42.264;23.826;2023-03-13T06:40:43;94320.22;;;0.25;65.45
61870;BME280;47810;42.264;23.826;2023-03-13T06:43:09;94321.91;;;0.28;65.60
61870;BME280;47810;42.264;23.826;2023-03-13T06:45:35;94323.69;;;0.26;65.06
61870;BME280;47810;42.264;23.826;2023-03-13T06:48:03;94327.16;;;0.25;64.47
61870;BME280;47810;42.264;23.826;2023-03-13T06:50:28;94334.19;;;0.19;65.10
61870;BME280;47810;42.264;23.826;2023-03-13T06:52:54;94336.81;;;0.18;64.09
61870;BME280;47810;42.264;23.826;2023-03-13T06:55:19;94332.47;;;0.18;63.92
61870;BME280;47810;42.264;23.826;2023-03-13T06:57:48;94337.50;;;0.28;63.62
61870;BME280;47810;42.264;23.826;2023-03-13T07:00:14;94342.78;;;0.23;63.51
61870;BME280;47810;42.264;23.826;2023-03-13T07:02:39;94342.94;;;0.62;62.36
61870;BME280;47810;42.264;23.826;2023-03-13T07:05:05;94343.31;;;0.87;61.18
61870;BME280;47810;42.264;23.826;2023-03-13T07:07:32;94340.09;;;0.73;61.09
61870;BME280;47810;42.264;23.826;2023-03-13T07:09:58;94346.25;;;0.68;61.84
61870;BME280;47810;42.264;23.826;2023-03-13T07:12:23;94336.94;;;0.58;61.92
61870;BME280;47810;42.264;23.826;2023-03-13T07:14:49;94342.06;;;0.61;61.51
61870;BME280;47810;42.264;23.826;2023-03-13T07:17:14;94337.66;;;0.65;60.28
61870;BME280;47810;42.264;23.826;2023-03-13T07:19:40;94329.03;;;0.63;61.15
61870;BME280;47810;42.264;23.826;2023-03-13T07:22:05;94324.50;;;0.73;61.57
61870;BME280;47810;42.264;23.826;2023-03-13T07:24:31;94327.78;;;0.82;61.62
61870;BME280;47810;42.264;23.826;2023-03-13T07:26:56;94318.81;;;0.97;62.28
61870;BME280;47810;42.264;23.826;2023-03-13T07:29:22;94318.19;;;1.25;61.00
61870;BME280;47810;42.264;23.826;2023-03-13T07:31:47;94315.81;;;1.54;59.96
61870;BME280;47810;42.264;23.826;2023-03-13T07:34:13;94314.72;;;1.63;59.98
61870;BME280;47810;42.264;23.826;2023-03-13T07:36:39;94308.22;;;1.81;59.86
61870;BME280;47810;42.264;23.826;2023-03-13T07:39:05;94305.75;;;2.10;57.21
61870;BME280;47810;42.264;23.826;2023-03-13T07:41:31;94300.00;;;2.32;58.12
61870;BME280;47810;42.264;23.826;2023-03-13T07:43:57;94290.59;;;2.58;57.76
61870;BME280;47810;42.264;23.826;2023-03-13T07:46:22;94282.00;;;2.85;56.06
61870;BME280;47810;42.264;23.826;2023-03-13T07:48:49;94283.81;;;3.13;54.75
61870;BME280;47810;42.264;23.826;2023-03-13T07:51:18;94271.72;;;3.38;54.48
61870;BME280;47810;42.264;23.826;2023-03-13T07:53:45;94264.75;;;3.65;54.63
61870;BME280;47810;42.264;23.826;2023-03-13T07:56:14;94261.97;;;4.23;53.16
61870;BME280;47810;42.264;23.826;2023-03-13T07:58:40;94264.06;;;4.38;54.50
61870;BME280;47810;42.264;23.826;2023-03-13T08:01:07;94265.38;;;4.75;53.24
61870;BME280;47810;42.264;23.826;2023-03-13T08:03:33;94271.16;;;4.83;51.37
61870;BME280;47810;42.264;23.826;2023-03-13T08:06:02;94276.97;;;4.92;49.25
61870;BME280;47810;42.264;23.826;2023-03-13T08:08:28;94278.41;;;5.46;50.54
61870;BME280;47810;42.264;23.826;2023-03-13T08:11:04;94280.25;;;5.66;49.09
61870;BME280;47810;42.264;23.826;2023-03-13T08:13:30;94285.97;;;5.75;49.82
61870;BME280;47810;42.264;23.826;2023-03-13T08:16:13;94291.91;;;6.02;48.53
61870;BME280;47810;42.264;23.826;2023-03-13T08:18:40;94291.41;;;6.15;47.86
61870;BME280;47810;42.264;23.826;2023-03-13T08:21:08;94291.22;;;6.60;47.91
61870;BME280;47810;42.264;23.826;2023-03-13T08:23:34;94294.84;;;6.78;47.69
61870;BME280;47810;42.264;23.826;2023-03-13T08:26:01;94283.91;;;7.27;46.15
61870;BME280;47810;42.264;23.826;2023-03-13T08:28:27;94286.69;;;7.23;45.34
61870;BME280;47810;42.264;23.826;2023-03-13T08:30:52;94292.97;;;7.57;46.04
61870;BME280;47810;42.264;23.826;2023-03-13T08:33:18;94287.84;;;7.92;45.47
61870;BME280;47810;42.264;23.826;2023-03-13T08:35:44;94284.00;;;8.53;44.20
61870;BME280;47810;42.264;23.826;2023-03-13T08:38:09;94278.34;;;8.43;44.31
61870;BME280;47810;42.264;23.826;2023-03-13T08:40:35;94282.31;;;8.52;44.38
61870;BME280;47810;42.264;23.826;2023-03-13T08:43:00;94270.34;;;8.79;43.75
61870;BME280;47810;42.264;23.826;2023-03-13T08:45:26;94275.03;;;9.07;44.60
61870;BME280;47810;42.264;23.826;2023-03-13T08:47:53;94272.44;;;8.90;41.74
61870;BME280;47810;42.264;23.826;2023-03-13T08:50:19;94260.25;;;9.21;42.19
61870;BME280;47810;42.264;23.826;2023-03-13T08:52:44;94269.31;;;9.32;42.10
61870;BME280;47810;42.264;23.826;2023-03-13T08:55:10;94258.97;;;9.61;40.83
61870;BME280;47810;42.264;23.826;2023-03-13T08:57:36;94250.94;;;9.78;40.43
61870;BME280;47810;42.264;23.826;2023-03-13T09:00:01;94249.25;;;9.93;39.16
61870;BME280;47810;42.264;23.826;2023-03-13T09:02:27;94254.41;;;10.11;39.12
61870;BME280;47810;42.264;23.826;2023-03-13T09:04:53;94250.03;;;10.41;40.28
61870;BME280;47810;42.264;23.826;2023-03-13T09:07:18;94239.31;;;10.59;39.13
61870;BME280;47810;42.264;23.826;2023-03-13T09:09:44;94239.00;;;10.49;37.21
61870;BME280;47810;42.264;23.826;2023-03-13T09:12:10;94229.59;;;10.59;37.61
61870;BME280;47810;42.264;23.826;2023-03-13T09:14:35;94231.44;;;10.87;37.62
61870;BME280;47810;42.264;23.826;2023-03-13T09:17:01;94229.88;;;10.99;36.53
61870;BME280;47810;42.264;23.826;2023-03-13T09:19:28;94227.69;;;11.06;39.81
61870;BME280;47810;42.264;23.826;2023-03-13T09:21:54;94231.19;;;11.06;37.27
61870;BME280;47810;42.264;23.826;2023-03-13T09:24:19;94228.16;;;11.27;39.16
61870;BME280;47810;42.264;23.826;2023-03-13T09:26:45;94232.78;;;11.23;36.34
61870;BME280;47810;42.264;23.826;2023-03-13T09:29:11;94228.47;;;11.36;36.95
61870;BME280;47810;42.264;23.826;2023-03-13T09:31:36;94233.69;;;11.65;37.47
61870;BME280;47810;42.264;23.826;2023-03-13T09:34:02;94226.84;;;11.89;35.36
61870;BME280;47810;42.264;23.826;2023-03-13T09:36:29;94240.06;;;12.04;35.93
61870;BME280;47810;42.264;23.826;2023-03-13T09:38:55;94232.84;;;12.33;35.25
61870;BME280;47810;42.264;23.826;2023-03-13T09:44:08;94227.56;;;12.06;34.77
61870;BME280;47810;42.264;23.826;2023-03-13T09:49:32;94226.13;;;11.73;35.73
61870;BME280;47810;42.264;23.826;2023-03-13T09:54:36;94229.97;;;12.23;37.13
61870;BME280;47810;42.264;23.826;2023-03-13T09:57:06;94236.81;;;12.53;35.92
61870;BME280;47810;42.264;23.826;2023-03-13T10:02:32;94227.13;;;12.92;34.32
61870;BME280;47810;42.264;23.826;2023-03-13T10:07:27;94243.78;;;12.94;33.59
61870;BME280;47810;42.264;23.826;2023-03-13T10:09:52;94236.34;;;12.99;33.11
61870;BME280;47810;42.264;23.826;2023-03-13T10:12:19;94243.38;;;13.25;34.18
61870;BME280;47810;42.264;23.826;2023-03-13T10:14:52;94234.97;;;13.57;33.59
61870;BME280;47810;42.264;23.826;2023-03-13T10:17:36;94232.34;;;13.94;30.94
61870;BME280;47810;42.264;23.826;2023-03-13T10:22:51;94211.38;;;13.78;31.20
61870;BME280;47810;42.264;23.826;2023-03-13T10:25:23;94207.44;;;13.84;35.42
61870;BME280;47810;42.264;23.826;2023-03-13T10:27:51;94208.38;;;13.83;30.59
61870;BME280;47810;42.264;23.826;2023-03-13T10:30:25;94216.06;;;13.98;31.13
61870;BME280;47810;42.264;23.826;2023-03-13T10:33:03;94206.00;;;13.91;34.31
61870;BME280;47810;42.264;23.826;2023-03-13T10:35:42;94207.78;;;14.03;32.01
61870;BME280;47810;42.264;23.826;2023-03-13T10:38:09;94193.81;;;14.12;32.38
61870;BME280;47810;42.264;23.826;2023-03-13T10:40:35;94198.59;;;14.31;33.69
61870;BME280;47810;42.264;23.826;2023-03-13T10:43:05;94196.19;;;14.52;31.08
61870;BME280;47810;42.264;23.826;2023-03-13T10:45:35;94195.28;;;14.64;32.28
61870;BME280;47810;42.264;23.826;2023-03-13T10:48:11;94195.22;;;14.29;32.09
61870;BME280;47810;42.264;23.826;2023-03-13T10:50:40;94190.41;;;14.58;32.36
61870;BME280;47810;42.264;23.826;2023-03-13T10:53:07;94181.84;;;14.66;31.45
61870;BME280;47810;42.264;23.826;2023-03-13T10:55:32;94177.28;;;14.79;30.98
61870;BME280;47810;42.264;23.826;2023-03-13T10:58:03;94176.16;;;15.06;31.70
61870;BME280;47810;42.264;23.826;2023-03-13T11:00:38;94167.28;;;15.05;30.38
61870;BME280;47810;42.264;23.826;2023-03-13T11:03:16;94168.78;;;15.09;31.14
61870;BME280;47810;42.264;23.826;2023-03-13T11:05:42;94166.09;;;15.21;30.56
61870;BME280;47810;42.264;23.826;2023-03-13T11:08:18;94161.59;;;14.87;32.75
61870;BME280;47810;42.264;23.826;2023-03-13T11:20:57;94122.31;;;15.25;31.31
61870;BME280;47810;42.264;23.826;2023-03-13T11:23:27;94117.72;;;15.49;30.41
61870;BME280;47810;42.264;23.826;2023-03-13T11:33:38;94119.91;;;15.67;29.63
61870;BME280;47810;42.264;23.826;2023-03-13T11:36:08;94111.78;;;15.46;28.19
61870;BME280;47810;42.264;23.826;2023-03-13T11:38:40;94124.22;;;15.56;29.33
61870;BME280;47810;42.264;23.826;2023-03-13T11:41:29;94112.16;;;15.52;28.57
61870;BME280;47810;42.264;23.826;2023-03-13T11:44:08;94110.31;;;15.64;29.05
61870;BME280;47810;42.264;23.826;2023-03-13T11:49:50;94112.44;;;15.38;27.16
61870;BME280;47810;42.264;23.826;2023-03-13T11:52:39;94111.19;;;15.42;30.75
61870;BME280;47810;42.264;23.826;2023-03-13T11:54:51;94102.47;;;15.51;28.57
61870;BME280;47810;42.264;23.826;2023-03-13T11:59:51;94095.56;;;15.71;27.12
61870;BME280;47810;42.264;23.826;2023-03-13T12:02:23;94097.66;;;15.34;29.15
61870;BME280;47810;42.264;23.826;2023-03-13T12:05:25;94090.13;;;15.61;28.93
61870;BME280;47810;42.264;23.826;2023-03-13T12:07:59;94088.91;;;15.77;28.39
61870;BME280;47810;42.264;23.826;2023-03-13T12:10:37;94091.00;;;15.94;27.22
61870;BME280;47810;42.264;23.826;2023-03-13T12:13:16;94081.53;;;15.47;27.70
61870;BME280;47810;42.264;23.826;2023-03-13T12:15:48;94081.84;;;15.87;27.98
61870;BME280;47810;42.264;23.826;2023-03-13T12:20:46;94076.25;;;15.90;26.85
61870;BME280;47810;42.264;23.826;2023-03-13T12:23:16;94080.34;;;15.94;28.13
61870;BME280;47810;42.264;23.826;2023-03-13T12:25:45;94078.72;;;16.35;29.26
61870;BME280;47810;42.264;23.826;2023-03-13T12:28:46;94071.84;;;16.53;26.87
61870;BME280;47810;42.264;23.826;2023-03-13T12:36:12;94060.38;;;16.00;27.44
61870;BME280;47810;42.264;23.826;2023-03-13T12:38:40;94063.28;;;15.97;27.94
61870;BME280;47810;42.264;23.826;2023-03-13T12:43:47;94050.25;;;16.15;28.05
61870;BME280;47810;42.264;23.826;2023-03-13T12:51:33;94060.06;;;16.77;27.38
61870;BME280;47810;42.264;23.826;2023-03-13T12:56:30;94069.06;;;16.34;28.18
61870;BME280;47810;42.264;23.826;2023-03-13T13:02:07;94068.91;;;16.36;26.90
61870;BME280;47810;42.264;23.826;2023-03-13T13:04:40;94075.84;;;16.27;27.94
61870;BME280;47810;42.264;23.826;2023-03-13T13:12:24;94066.59;;;16.10;27.34
61870;BME280;47810;42.264;23.826;2023-03-13T13:19:44;94054.75;;;15.82;27.12
61870;BME280;47810;42.264;23.826;2023-03-13T13:24:56;94059.13;;;15.72;27.24
61870;BME280;47810;42.264;23.826;2023-03-13T13:30:01;94052.88;;;15.50;29.26
61870;BME280;47810;42.264;23.826;2023-03-13T13:32:29;94051.16;;;15.72;28.69
61870;BME280;47810;42.264;23.826;2023-03-13T13:35:00;94055.78;;;15.47;27.66
61870;BME280;47810;42.264;23.826;2023-03-13T13:37:26;94052.03;;;15.50;26.37
61870;BME280;47810;42.264;23.826;2023-03-13T13:39:53;94048.75;;;15.57;29.30
61870;BME280;47810;42.264;23.826;2023-03-13T13:47:45;94051.38;;;15.80;27.00
61870;BME280;47810;42.264;23.826;2023-03-13T13:50:18;94051.78;;;15.96;27.52
61870;BME280;47810;42.264;23.826;2023-03-13T13:52:45;94053.13;;;15.91;26.82
61870;BME280;47810;42.264;23.826;2023-03-13T13:57:47;94046.44;;;15.64;26.38
61870;BME280;47810;42.264;23.826;2023-03-13T14:00:49;94040.03;;;15.55;27.41
61870;BME280;47810;42.264;23.826;2023-03-13T14:03:22;94040.59;;;15.38;28.37
61870;BME280;47810;42.264;23.826;2023-03-13T14:05:56;94051.13;;;15.28;29.08
61870;BME280;47810;42.264;23.826;2023-03-13T14:08:26;94054.84;;;15.37;27.58
61870;BME280;47810;42.264;23.826;2023-03-13T14:13:38;94047.84;;;15.25;28.44
61870;BME280;47810;42.264;23.826;2023-03-13T14:16:17;94050.53;;;15.13;26.50
61870;BME280;47810;42.264;23.826;2023-03-13T14:18:44;94049.44;;;15.05;27.60
61870;BME280;47810;42.264;23.826;2023-03-13T14:21:09;94051.75;;;14.98;28.41
61870;BME280;47810;42.264;23.826;2023-03-13T14:23:43;94050.81;;;14.99;26.93
61870;BME280;47810;42.264;23.826;2023-03-13T14:26:10;94049.59;;;14.81;26.89
61870;BME280;47810;42.264;23.826;2023-03-13T14:28:37;94041.13;;;14.64;27.68
61870;BME280;47810;42.264;23.826;2023-03-13T14:31:03;94042.44;;;14.59;29.53